Time;durP1;ratioP1;P1;durP2;ratioP2;P2;SDS_P1;SDS_P2;PMS_P1;PMS_P2;Temp;Humidity;BMP_temperature;BMP_pressure;BME280_temperature;BME280_humidity;BME280_pressure;Samples;Min_cycle;Max_cycle;Signal;HPM_P1;HPM_P2
2022/10/04 00:02:18;;;;;;;14.70;2.35;;;;;;;10.23;77.60;101014.18;1779999;80;21434;-74
2022/10/04 00:05:11;;;;;;;9.50;1.72;;;;;;;10.22;77.58;101012.90;1764475;80;20946;-74
2022/10/04 00:08:01;;;;;;;14.30;2.65;;;;;;;10.20;77.59;101015.50;1770840;80;20966;-74
2022/10/04 00:10:47;;;;;;;16.42;2.17;;;;;;;10.18;77.65;101016.34;1775376;80;21085;-74
2022/10/04 00:13:35;;;;;;;14.98;2.55;;;;;;;10.18;77.68;101012.47;1780276;80;21509;-74
2022/10/04 00:16:33;;;;;;;12.00;2.47;;;;;;;10.16;77.72;101011.19;1783436;80;20946;-74
2022/10/04 00:19:24;;;;;;;9.15;2.25;;;;;;;10.18;77.72;101011.17;1786761;80;21608;-74
2022/10/04 00:22:13;;;;;;;8.78;2.20;;;;;;;10.14;77.69;101006.90;1777033;79;21634;-74
2022/10/04 00:25:16;;;;;;;14.03;2.70;;;;;;;10.13;77.75;101011.64;1778666;80;20993;-74
2022/10/04 00:28:25;;;;;;;17.40;2.65;;;;;;;10.11;77.75;101012.95;1761024;80;21026;-74
2022/10/04 00:31:25;;;;;;;11.22;2.20;;;;;;;10.08;77.80;101008.23;1776835;79;20985;-74
2022/10/04 00:34:16;;;;;;;11.68;2.33;;;;;;;10.06;77.80;101006.95;1788793;78;21069;-74
2022/10/04 00:37:02;;;;;;;11.18;2.10;;;;;;;10.04;77.85;101013.00;1781605;78;21022;-74
2022/10/04 00:39:58;;;;;;;12.70;2.37;;;;;;;10.04;77.88;101019.03;1794476;78;21657;-74
2022/10/04 00:43:00;;;;;;;12.03;2.40;;;;;;;10.04;77.92;101015.16;1774524;78;21053;-74
2022/10/04 00:46:00;;;;;;;14.63;3.02;;;;;;;10.01;77.88;101012.59;1765399;78;21041;-74
2022/10/04 00:48:54;;;;;;;18.17;2.58;;;;;;;10.02;77.93;101021.20;1732064;81;21226;-74
2022/10/04 00:52:00;;;;;;;13.88;2.67;;;;;;;10.01;77.92;101021.64;1712256;81;21072;-74
2022/10/04 00:54:55;;;;;;;14.07;2.20;;;;;;;9.99;77.93;101017.34;1721999;81;21096;-74
2022/10/04 00:57:44;;;;;;;9.00;2.20;;;;;;;9.94;77.97;101011.78;1768836;78;21061;-74
2022/10/04 01:00:32;;;;;;;10.85;2.58;;;;;;;9.93;78.00;101013.94;1768105;79;21021;-74
2022/10/04 01:03:29;;;;;;;10.32;2.33;;;;;;;9.91;77.98;101017.40;1757292;79;21462;-74
2022/10/04 01:06:15;;;;;;;12.35;2.30;;;;;;;9.88;78.03;101014.83;1793541;78;21545;-74
2022/10/04 01:09:05;;;;;;;12.63;2.60;;;;;;;9.87;78.06;101019.17;1789226;78;21122;-74
2022/10/04 01:12:01;;;;;;;14.58;2.10;;;;;;;9.85;78.09;101016.18;1777105;79;21040;-74
2022/10/04 01:15:16;;;;;;;18.77;2.98;;;;;;;9.85;78.10;101008.43;1769456;78;21088;-74
2022/10/04 01:18:14;;;;;;;13.13;2.67;;;;;;;9.83;78.12;101015.33;1792891;78;20998;-74
2022/10/04 01:21:22;;;;;;;10.80;2.55;;;;;;;9.81;78.14;101017.92;1796249;78;20996;-74
2022/10/04 01:24:18;;;;;;;9.85;2.50;;;;;;;9.82;78.22;101018.78;1782831;78;21000;-74
2022/10/04 01:27:05;;;;;;;12.30;2.27;;;;;;;9.84;78.18;101018.34;1787501;78;20946;-74
2022/10/04 01:29:50;;;;;;;8.90;1.90;;;;;;;9.85;78.18;101021.34;1771660;78;21530;-74
2022/10/04 01:32:38;;;;;;;11.40;2.20;;;;;;;9.83;78.28;101015.33;1772617;78;20950;-74
2022/10/04 01:35:24;;;;;;;12.88;2.30;;;;;;;9.80;78.24;101020.52;1784731;78;21588;-74
2022/10/04 01:38:11;;;;;;;18.73;3.37;;;;;;;9.81;78.30;101023.52;1786432;78;20954;-74
2022/10/04 01:40:59;;;;;;;12.90;2.30;;;;;;;9.82;78.37;101023.95;1784762;78;21020;-74
2022/10/04 01:43:49;;;;;;;15.08;2.47;;;;;;;9.81;78.30;101028.69;1780659;78;21113;-74
2022/10/04 01:46:37;;;;;;;11.80;2.77;;;;;;;9.80;78.30;101026.54;1788688;78;20954;-74
2022/10/04 01:49:26;;;;;;;11.60;2.17;;;;;;;9.81;78.34;101028.69;1792470;78;20958;-74
2022/10/04 01:52:28;;;;;;;13.65;2.47;;;;;;;9.80;78.35;101026.97;1790719;78;20895;-74
2022/10/04 01:55:21;;;;;;;12.50;2.30;;;;;;;9.79;78.37;101026.55;1787459;78;21022;-74
2022/10/04 01:58:26;;;;;;;14.43;2.50;;;;;;;9.78;78.38;101024.83;1794301;78;21026;-74
2022/10/04 02:01:16;;;;;;;12.23;2.65;;;;;;;9.77;78.41;101025.27;1779245;78;21053;-74
2022/10/04 02:04:13;;;;;;;13.62;2.10;;;;;;;9.78;78.44;101024.40;1764417;78;20997;-74
2022/10/04 02:07:01;;;;;;;9.10;2.08;;;;;;;9.80;78.45;101026.97;1779966;78;21021;-74
2022/10/04 02:09:50;;;;;;;13.15;2.00;;;;;;;9.79;78.49;101030.42;1797820;78;21018;-74
2022/10/04 02:12:36;;;;;;;11.83;2.15;;;;;;;9.78;78.54;101032.14;1776350;78;21100;-74
2022/10/04 02:15:27;;;;;;;11.53;2.30;;;;;;;9.76;78.51;101027.42;1799038;78;20918;-74
2022/10/04 02:18:14;;;;;;;12.98;2.22;;;;;;;9.75;78.52;101025.70;1777541;78;20970;-74
2022/10/04 02:21:00;;;;;;;14.53;2.65;;;;;;;9.76;78.55;101035.61;1782855;78;21018;-74
2022/10/04 02:23:46;;;;;;;12.37;2.22;;;;;;;9.77;78.59;101032.16;1784668;78;21077;-74
2022/10/04 02:26:32;;;;;;;14.75;2.47;;;;;;;9.76;78.56;101032.59;1796227;78;21481;-74
2022/10/04 02:29:19;;;;;;;22.23;4.30;;;;;;;9.76;78.56;101033.87;1794504;78;21025;-74
2022/10/04 02:35:10;;;;;;;12.45;2.47;;;;;;;9.75;78.68;101036.04;1664438;84;21751;-74
2022/10/04 02:38:09;;;;;;;15.85;2.30;;;;;;;9.71;78.70;101036.92;1731869;80;21454;-74
2022/10/04 02:41:03;;;;;;;10.50;2.12;;;;;;;9.69;78.71;101033.48;1782125;78;21069;-74
2022/10/04 02:44:15;;;;;;;11.22;2.08;;;;;;;9.69;78.77;101032.20;1787504;78;21009;-74
2022/10/04 02:47:09;;;;;;;12.37;1.90;;;;;;;9.67;78.72;101044.26;1763338;79;20977;-74
2022/10/04 02:50:03;;;;;;;14.43;2.58;;;;;;;9.65;78.76;101043.41;1769929;78;22253;-74
2022/10/04 02:52:59;;;;;;;9.08;2.47;;;;;;;9.63;78.79;101045.14;1769925;78;21443;-74
2022/10/04 02:55:46;;;;;;;12.80;2.50;;;;;;;9.62;78.79;101042.14;1645755;81;5000609;-74
2022/10/04 02:58:32;;;;;;;16.12;2.37;;;;;;;9.60;78.79;101036.98;1692699;82;21084;-74
2022/10/04 03:01:27;;;;;;;11.65;2.55;;;;;;;9.58;78.82;101036.56;1694015;83;25399;-74
2022/10/04 03:04:14;;;;;;;8.43;1.92;;;;;;;9.56;78.87;101034.42;1691472;82;21036;-74
2022/10/04 03:07:04;;;;;;;10.72;1.95;;;;;;;9.53;78.87;101038.30;1702867;83;21088;-74
2022/10/04 03:09:50;;;;;;;9.88;2.10;;;;;;;9.48;78.87;101040.91;1686314;83;21068;-74
2022/10/04 03:12:36;;;;;;;14.78;2.50;;;;;;;9.47;78.94;101040.91;1695786;83;21520;-74
2022/10/04 03:15:21;;;;;;;8.58;2.37;;;;;;;9.46;78.97;101042.64;1689809;83;25211;-74
2022/10/04 03:18:08;;;;;;;9.18;2.30;;;;;;;9.46;78.98;101040.06;1691712;83;21119;-74
2022/10/04 03:20:53;;;;;;;10.35;2.37;;;;;;;9.45;78.97;101041.35;1703827;83;21582;-74
2022/10/04 03:23:40;;;;;;;12.68;2.62;;;;;;;9.40;78.93;101028.90;1697993;82;21422;-74
2022/10/04 03:26:51;;;;;;;16.25;2.60;;;;;;;9.37;78.98;101028.91;1702725;83;22185;-74
2022/10/04 03:29:39;;;;;;;13.05;2.50;;;;;;;9.35;79.03;101025.52;1705432;83;21536;-74
2022/10/04 03:32:29;;;;;;;10.25;2.35;;;;;;;9.32;79.05;101027.67;1710777;82;21096;-74
2022/10/04 03:35:36;;;;;;;18.62;2.85;;;;;;;9.31;79.08;101034.99;1704331;82;21072;-74
2022/10/04 03:38:23;;;;;;;9.25;2.02;;;;;;;9.32;79.10;101040.58;1710171;82;21084;-74
2022/10/04 03:41:11;;;;;;;12.47;2.72;;;;;;;9.30;79.11;101039.73;1704561;82;21077;-74
2022/10/04 03:43:56;;;;;;;11.25;1.90;;;;;;;9.27;79.09;101044.47;1721844;81;21085;-74
2022/10/04 03:46:44;;;;;;;11.28;2.77;;;;;;;9.27;79.13;101039.73;1715594;82;21065;-74
2022/10/04 03:49:36;;;;;;;6.37;2.15;;;;;;;9.23;79.16;101043.19;1711580;82;21089;-74
2022/10/04 03:52:28;;;;;;;9.50;2.12;;;;;;;9.21;79.14;101033.31;1725552;82;21494;-74
2022/10/04 03:55:16;;;;;;;10.05;2.87;;;;;;;9.20;79.21;101037.61;1717860;81;21558;-74
2022/10/04 03:58:02;;;;;;;12.75;3.35;;;;;;;9.21;79.22;101041.05;1714844;82;20990;-74
2022/10/04 04:01:11;;;;;;;15.32;3.05;;;;;;;9.20;79.19;101050.52;1715163;82;21025;-74
2022/10/04 04:04:23;;;;;;;17.98;3.25;;;;;;;9.20;79.29;101058.69;1717180;81;20990;-74
2022/10/04 04:07:22;;;;;;;16.32;3.22;;;;;;;9.21;79.35;101057.82;1713828;82;21010;-76
2022/10/04 04:10:23;;;;;;;19.05;5.10;;;;;;;9.23;79.33;101058.24;1725411;82;20892;-76
2022/10/04 04:13:39;;;;;;;8.45;3.60;;;;;;;9.26;79.36;101058.66;1713984;81;21372;-76
2022/10/04 04:16:25;;;;;;;17.40;4.17;;;;;;;9.27;79.41;101065.11;1723874;82;21348;-76
2022/10/04 04:19:15;;;;;;;12.77;4.47;;;;;;;9.28;79.46;101062.09;1723295;81;21474;-76
2022/10/04 04:22:00;;;;;;;15.10;4.17;;;;;;;9.19;79.41;101050.09;1726174;81;22133;-76
2022/10/04 04:24:46;;;;;;;16.30;5.12;;;;;;;9.33;79.49;101074.98;1718004;81;21628;-76
2022/10/04 04:27:36;;;;;;;22.05;5.30;;;;;;;9.36;79.47;101077.55;1598510;81;5001449;-78
2022/10/04 04:30:21;;;;;;;16.17;6.35;;;;;;;9.42;79.56;101072.34;1711553;81;21115;-76
2022/10/04 04:33:15;;;;;;;16.03;5.50;;;;;;;9.44;79.53;101070.61;1713457;82;20998;-76
2022/10/04 04:36:06;;;;;;;16.75;5.53;;;;;;;9.47;79.52;101077.05;1723571;82;21680;-75
2022/10/04 04:41:55;;;;;;;21.60;6.37;;;;;;;9.50;79.56;101081.77;1717389;82;21073;-75
2022/10/04 04:45:06;;;;;;;17.98;5.95;;;;;;;9.54;79.60;101085.20;1713417;82;21034;-75
2022/10/04 04:48:00;;;;;;;18.17;6.53;;;;;;;9.56;79.61;101085.62;1724524;81;21502;-75
2022/10/04 04:50:41;;;;;;;18.92;5.50;;;;;;;9.59;79.63;101084.75;1725596;81;21065;-75
2022/10/04 04:53:29;;;;;;;14.93;6.33;;;;;;;9.61;79.63;101082.59;1722600;83;21018;-76
2022/10/04 04:56:22;;;;;;;14.95;5.50;;;;;;;9.61;79.67;101086.89;1716407;83;21082;-76
2022/10/04 04:59:07;;;;;;;15.70;5.95;;;;;;;9.59;79.67;101083.02;1720030;81;21073;-76
2022/10/04 05:01:52;;;;;;;19.87;5.90;;;;;;;9.60;79.69;101085.17;1716974;81;21453;-76
2022/10/04 05:04:38;;;;;;;17.23;6.17;;;;;;;9.60;79.73;101089.91;1717876;81;20977;-75
2022/10/04 05:07:23;;;;;;;17.37;5.72;;;;;;;9.59;79.70;101092.06;1717682;82;21025;-75
2022/10/04 05:10:33;;;;;;;18.07;5.50;;;;;;;9.60;79.73;101096.80;1715343;82;21573;-75
2022/10/04 05:13:19;;;;;;;16.90;5.42;;;;;;;9.60;79.78;101100.23;1696086;82;21129;-75
2022/10/04 05:16:20;;;;;;;14.10;5.75;;;;;;;9.63;79.82;101104.53;1705864;82;21089;-75
2022/10/04 05:19:13;;;;;;;18.35;5.72;;;;;;;9.64;79.83;101108.83;1713879;82;21077;-75
2022/10/04 05:22:02;;;;;;;20.02;6.45;;;;;;;9.65;79.83;101103.23;1707261;82;21089;-75
2022/10/04 05:24:55;;;;;;;11.18;5.50;;;;;;;9.67;79.81;101110.53;1713942;82;21006;-76
2022/10/04 05:27:43;;;;;;;16.23;5.67;;;;;;;9.67;79.86;101107.95;1720892;83;20998;-76
2022/10/04 05:30:52;;;;;;;10.23;5.67;;;;;;;9.70;79.88;101118.27;1712941;82;21066;-76
2022/10/04 05:33:58;;;;;;;11.95;5.25;;;;;;;9.72;79.92;101120.41;1704588;83;21066;-76
2022/10/04 05:37:09;;;;;;;19.52;5.42;;;;;;;9.75;79.96;101122.55;1700551;82;21609;-76
2022/10/04 05:40:22;;;;;;;14.05;5.28;;;;;;;9.79;79.96;101125.55;1643779;85;21005;-76
2022/10/04 05:43:35;;;;;;;13.32;5.35;;;;;;;9.82;79.97;101122.95;1698536;82;20963;-76
2022/10/04 05:46:30;;;;;;;11.50;5.00;;;;;;;9.85;79.97;101131.12;1701680;82;21495;-76
2022/10/04 05:49:18;;;;;;;9.68;4.92;;;;;;;9.90;80.07;101130.63;1711170;82;21722;-76
2022/10/04 05:52:13;;;;;;;20.10;5.58;;;;;;;9.97;80.09;101142.65;1698788;82;21051;-76
2022/10/04 05:55:36;;;;;;;15.65;5.60;;;;;;;10.02;80.12;101142.20;1710064;82;21047;-76
2022/10/04 05:58:35;;;;;;;8.30;4.50;;;;;;;10.07;80.10;101144.32;1703688;83;21015;-76
2022/10/04 06:01:50;;;;;;;12.43;4.60;;;;;;;10.10;80.05;101146.03;1700042;82;21075;-76
2022/10/04 06:05:04;;;;;;;13.08;5.10;;;;;;;10.14;80.10;101146.44;1636017;85;21146;-75
2022/10/04 06:08:10;;;;;;;14.00;5.58;;;;;;;10.21;80.16;101150.73;1645195;85;21103;-75
2022/10/04 06:11:09;;;;;;;16.77;5.80;;;;;;;10.27;80.16;101158.45;1642856;85;21064;-75
2022/10/04 06:14:03;;;;;;;11.95;4.97;;;;;;;10.33;80.19;101160.15;1636654;85;21130;-75
2022/10/04 06:17:08;;;;;;;18.27;6.00;;;;;;;10.38;80.20;101166.15;1623094;85;21188;-75
2022/10/04 06:20:01;;;;;;;17.50;5.10;;;;;;;10.44;80.21;101160.47;1639285;85;21627;-75
2022/10/04 06:22:48;;;;;;;13.10;4.72;;;;;;;10.50;80.17;101157.84;1594809;87;22397;-75
2022/10/04 06:25:44;;;;;;;14.28;5.40;;;;;;;10.55;80.19;101170.75;1624104;86;21153;-75
2022/10/04 06:28:40;;;;;;;10.78;4.62;;;;;;;10.61;80.23;101172.00;1609871;87;21107;-75
2022/10/04 06:31:53;;;;;;;17.23;5.00;;;;;;;10.69;80.22;101166.77;1577803;89;21223;-75
2022/10/04 06:35:16;;;;;;;12.15;4.62;;;;;;;10.74;80.20;101167.59;1614185;87;21028;-75
2022/10/04 06:38:09;;;;;;;13.83;4.70;;;;;;;10.79;80.23;101177.03;1612777;85;21535;-75
2022/10/04 06:41:14;;;;;;;10.55;4.37;;;;;;;10.88;80.23;101178.69;1648202;85;21124;-75
2022/10/04 06:44:28;;;;;;;10.95;4.28;;;;;;;10.92;80.18;101182.94;1642003;84;21089;-75
2022/10/04 06:47:18;;;;;;;14.78;4.83;;;;;;;10.98;80.22;101184.62;1637623;86;21120;-75
2022/10/04 06:50:41;;;;;;;9.90;4.22;;;;;;;11.05;80.26;101191.45;1663136;84;21128;-75
2022/10/04 06:53:56;;;;;;;10.98;3.72;;;;;;;11.10;80.23;101189.69;1669541;84;21680;-75
2022/10/04 06:57:13;;;;;;;8.88;3.30;;;;;;;11.12;80.21;101189.23;1657886;84;21082;-75
2022/10/04 07:00:21;;;;;;;13.55;4.08;;;;;;;11.14;80.17;101196.12;1689417;83;21038;-75
2022/10/04 07:03:23;;;;;;;11.75;3.90;;;;;;;11.17;80.22;101197.39;1707182;82;21012;-75
2022/10/04 07:06:10;;;;;;;9.23;3.45;;;;;;;11.23;80.27;101202.95;1705215;82;21385;-75
2022/10/04 07:09:01;;;;;;;10.00;3.37;;;;;;;11.31;80.27;101198.98;1696148;83;21630;-75
2022/10/04 07:11:50;;;;;;;10.25;3.45;;;;;;;11.36;80.20;101203.25;1702923;83;21036;-75
2022/10/04 07:14:40;;;;;;;12.33;4.08;;;;;;;11.48;80.26;101204.39;1645293;86;21492;-75
2022/10/04 07:17:33;;;;;;;11.08;3.10;;;;;;;11.56;80.23;101200.43;1691654;83;21377;-75
2022/10/04 07:20:32;;;;;;;7.90;3.45;;;;;;;11.68;80.23;101204.62;1705216;83;21005;-76
2022/10/04 07:23:26;;;;;;;8.53;3.58;;;;;;;11.78;80.17;101206.27;1713509;82;21117;-76
2022/10/04 07:26:39;;;;;;;10.63;2.95;;;;;;;11.88;80.18;101206.59;1700651;83;20970;-76
2022/10/04 07:29:28;;;;;;;6.40;2.05;;;;;;;11.95;80.18;101216.44;1703326;82;21112;-76
2022/10/04 07:32:18;;;;;;;9.13;2.50;;;;;;;12.01;80.15;101204.23;1703137;83;21031;-76
2022/10/04 07:35:15;;;;;;;8.90;3.05;;;;;;;12.42;80.43;101206.73;1681137;83;21046;-76
2022/10/04 07:38:18;;;;;;;7.50;2.15;;;;;;;12.68;80.05;101211.06;1670997;83;410469;-76
2022/10/04 07:41:20;;;;;;;10.58;2.20;;;;;;;13.05;80.14;101210.02;1669775;83;21459;-76
2022/10/04 07:44:13;;;;;;;11.03;2.30;;;;;;;13.16;79.86;101214.62;1661528;83;21072;-76
2022/10/04 07:47:20;;;;;;;6.28;2.47;;;;;;;13.17;79.83;101210.29;1673120;83;21046;-76
2022/10/04 07:50:29;;;;;;;9.43;2.12;;;;;;;13.23;79.94;101218.83;1662381;83;21548;-76
2022/10/04 07:53:22;;;;;;;9.58;2.00;;;;;;;13.31;79.86;101220.00;1667287;83;21054;-76
2022/10/04 07:56:15;;;;;;;6.75;2.20;;;;;;;13.41;79.87;101220.25;1661242;83;21064;-76
2022/10/04 07:59:21;;;;;;;8.65;3.05;;;;;;;13.47;79.74;101223.19;1670120;83;21050;-76
2022/10/04 08:02:26;;;;;;;7.47;2.22;;;;;;;13.57;79.69;101226.00;1668824;83;21089;-76
2022/10/04 08:05:41;;;;;;;12.65;2.50;;;;;;;13.61;79.72;101229.40;1658399;83;21013;-75
2022/10/04 08:08:46;;;;;;;9.00;2.33;;;;;;;13.66;79.76;101233.63;1677055;83;21054;-75
2022/10/04 08:11:39;;;;;;;7.22;2.00;;;;;;;13.82;79.64;101232.89;1682376;83;21039;-75
2022/10/04 08:14:44;;;;;;;11.95;2.52;;;;;;;13.86;79.67;101238.01;1665817;84;21081;-75
2022/10/04 08:17:53;;;;;;;8.60;2.30;;;;;;;13.89;79.46;101238.39;1677862;83;21478;-75
2022/10/04 08:21:07;;;;;;;10.72;2.45;;;;;;;14.07;79.59;101232.79;1673013;83;21026;-75
2022/10/04 08:24:24;;;;;;;9.90;2.33;;;;;;;14.21;79.38;101248.97;1670724;83;21838;-75
2022/10/04 08:27:29;;;;;;;8.13;2.10;;;;;;;14.23;79.30;101248.94;1674489;83;21042;-75
2022/10/04 08:30:16;;;;;;;7.85;2.10;;;;;;;14.20;79.14;101252.91;1673015;83;21077;-75
2022/10/04 08:33:13;;;;;;;7.72;2.60;;;;;;;14.22;79.24;101248.53;1674357;82;21129;-75
2022/10/04 08:36:10;;;;;;;8.48;2.37;;;;;;;14.24;79.22;101253.25;1700336;81;21030;-75
2022/10/04 08:39:00;;;;;;;5.92;1.95;;;;;;;14.29;79.19;101259.22;1708293;82;21548;-75
2022/10/04 08:42:08;;;;;;;8.33;2.27;;;;;;;14.37;79.06;101258.61;1710108;82;21006;-75
2022/10/04 08:45:31;;;;;;;5.60;1.90;;;;;;;14.46;79.02;101257.15;1703597;82;21032;-75
2022/10/04 08:48:57;;;;;;;7.30;2.15;;;;;;;14.55;78.86;101256.95;1714480;82;21018;-75
2022/10/04 08:52:40;;;;;;;7.25;2.17;;;;;;;14.57;78.77;101255.14;1718624;81;21015;-76
2022/10/04 08:55:46;;;;;;;6.40;2.12;;;;;;;14.64;78.61;101257.16;1708644;83;21537;-76
2022/10/04 08:58:45;;;;;;;8.33;2.20;;;;;;;14.76;78.72;101254.28;1705889;81;26693;-76
2022/10/04 09:02:12;;;;;;;7.12;3.05;;;;;;;14.79;78.53;101258.12;1714175;81;338687;-76
2022/10/04 09:05:19;;;;;;;6.65;2.05;;;;;;;14.89;78.54;101258.77;1723610;81;21490;-75
2022/10/04 09:08:35;;;;;;;9.65;2.02;;;;;;;14.97;78.26;101262.05;1712402;82;21022;-75
2022/10/04 09:11:43;;;;;;;4.40;1.95;;;;;;;14.96;78.16;101262.08;1712918;82;21101;-75
2022/10/04 09:14:54;;;;;;;9.90;2.27;;;;;;;14.95;78.09;101272.94;1703959;82;21058;-75
2022/10/04 09:18:20;;;;;;;6.47;1.82;;;;;;;14.88;77.80;101270.07;1722928;81;21030;-75
2022/10/04 09:21:37;;;;;;;5.83;1.85;;;;;;;14.82;77.90;101276.72;1723518;82;21068;-75
2022/10/04 09:24:58;;;;;;;6.70;1.92;;;;;;;14.80;77.81;101278.50;1719963;82;20995;-75
2022/10/04 09:28:05;;;;;;;7.45;1.98;;;;;;;14.76;77.64;101282.06;1721178;82;21089;-75
2022/10/04 09:31:01;;;;;;;4.97;1.62;;;;;;;14.63;77.59;101281.48;1718745;81;21058;-75
2022/10/04 09:34:41;;;;;;;4.95;1.52;;;;;;;14.58;77.68;101283.32;1703361;82;21524;-75
2022/10/04 09:37:49;;;;;;;8.08;1.55;;;;;;;14.58;77.49;101293.73;1694404;83;21508;-75
2022/10/04 09:41:15;;;;;;;7.85;1.87;;;;;;;14.48;77.31;101290.50;1703385;83;21060;-75
2022/10/04 09:44:47;;;;;;;5.47;1.50;;;;;;;14.34;77.22;101288.59;1711739;83;21093;-75
2022/10/04 09:47:50;;;;;;;3.60;1.30;;;;;;;14.32;77.29;101289.52;1707105;83;21017;-75
2022/10/04 09:51:18;;;;;;;5.42;1.32;;;;;;;14.53;76.96;101290.41;1711385;83;21128;-75
2022/10/04 09:54:26;;;;;;;6.17;1.10;;;;;;;14.60;77.00;101298.91;1708979;83;21458;-75
2022/10/04 09:57:20;;;;;;;5.87;1.30;;;;;;;14.53;76.76;101294.30;1708962;82;21032;-75
2022/10/04 10:00:17;;;;;;;6.30;1.52;;;;;;;14.53;76.79;101297.77;1705007;82;21556;-75
2022/10/04 10:03:30;;;;;;;5.83;1.87;;;;;;;14.57;76.75;101298.53;1696359;82;21096;-75
2022/10/04 10:06:35;;;;;;;5.13;1.60;;;;;;;14.61;76.66;101298.88;1641330;82;5001087;-75
2022/10/04 10:16:40;;;;;;;4.78;1.20;;;;;;;14.87;76.33;101304.36;1705426;83;21371;-75
2022/10/04 10:19:40;;;;;;;3.75;1.10;;;;;;;14.97;76.09;101308.92;1708017;83;21084;-75
2022/10/04 10:22:53;;;;;;;5.20;1.37;;;;;;;15.02;75.93;101309.67;1677627;83;21533;-75
2022/10/04 10:26:13;;;;;;;5.62;1.27;;;;;;;15.06;75.89;101309.16;1695058;83;21059;-75
2022/10/04 10:29:28;;;;;;;4.47;1.52;;;;;;;15.10;75.77;101314.22;1711438;82;21581;-75
2022/10/04 10:32:52;;;;;;;4.58;1.22;;;;;;;15.04;75.53;101306.59;1705455;82;21066;-75
2022/10/04 10:36:06;;;;;;;3.45;1.00;;;;;;;14.88;75.43;101315.64;1674487;83;21052;-75
2022/10/04 10:39:29;;;;;;;4.58;0.90;;;;;;;14.80;75.59;101322.77;1671130;84;21080;-75
2022/10/04 10:42:42;;;;;;;5.17;1.30;;;;;;;14.80;75.54;101318.86;1672037;84;21112;-75
2022/10/04 10:45:55;;;;;;;3.35;1.35;;;;;;;14.89;75.37;101319.95;1669044;84;21797;-75
2022/10/04 10:49:35;;;;;;;5.12;1.55;;;;;;;14.98;75.20;101330.61;1666891;84;21108;-75
2022/10/04 10:53:09;;;;;;;5.17;1.30;;;;;;;14.93;74.92;101326.81;1679388;83;21016;-75
2022/10/04 10:56:28;;;;;;;3.25;1.30;;;;;;;14.90;75.02;101318.62;1667169;84;21596;-75
2022/10/04 10:59:58;;;;;;;3.52;1.35;;;;;;;14.93;74.83;101319.00;1678463;83;21064;-77
2022/10/04 11:03:04;;;;;;;4.70;1.17;;;;;;;14.92;74.79;101329.00;1679964;83;21198;-75
2022/10/04 11:05:57;;;;;;;4.65;1.30;;;;;;;14.97;74.71;101322.39;1680142;83;21068;-75
2022/10/04 11:09:05;;;;;;;3.98;1.67;;;;;;;15.01;74.67;101326.19;1671704;84;21543;-75
2022/10/04 11:12:13;;;;;;;4.30;1.47;;;;;;;15.10;74.56;101326.39;1676043;84;21131;-75
2022/10/04 11:15:07;;;;;;;2.42;1.17;;;;;;;15.26;74.46;101336.02;1671653;83;21178;-75
2022/10/04 11:18:03;;;;;;;7.40;1.35;;;;;;;15.34;74.35;101339.29;1584847;84;21550;-75
2022/10/04 11:21:09;;;;;;;3.90;1.25;;;;;;;15.36;74.16;101346.63;1672910;84;21137;-75
2022/10/04 11:24:14;;;;;;;5.10;1.50;;;;;;;15.29;73.98;101345.06;1676719;84;21563;-75
2022/10/04 11:27:32;;;;;;;7.55;1.45;;;;;;;15.26;74.04;101343.83;1676866;83;21750;-75
2022/10/04 11:30:28;;;;;;;8.60;1.60;;;;;;;15.29;73.94;101335.94;1679521;84;21164;-75
2022/10/04 11:33:41;;;;;;;;;;;;;;;15.41;73.75;101344.77;1678167;84;21132;-74
2022/10/04 11:37:02;;;;;;;2.58;1.20;;;;;;;15.47;73.22;101348.08;1680711;83;20234;-75
2022/10/04 11:40:04;;;;;;;5.97;1.40;;;;;;;15.43;73.48;101352.95;1676560;83;21361;-74
2022/10/04 11:43:10;;;;;;;3.30;1.20;;;;;;;15.31;73.45;101353.25;1674556;84;21127;-74
2022/10/04 11:46:21;;;;;;;3.72;1.30;;;;;;;15.31;73.48;101348.48;1675336;83;26012;-74
2022/10/04 11:49:34;;;;;;;2.75;0.82;;;;;;;15.37;73.43;101342.68;1671510;84;22338;-74
2022/10/04 11:53:04;;;;;;;5.67;1.10;;;;;;;15.47;73.20;101348.08;1670779;83;21817;-74
2022/10/04 11:56:18;;;;;;;3.83;1.40;;;;;;;15.52;73.18;101334.48;1587505;88;21128;-74
2022/10/04 11:59:25;;;;;;;6.12;1.77;;;;;;;15.44;72.67;101338.17;1603218;87;21088;-74
2022/10/04 12:02:27;;;;;;;6.22;1.27;;;;;;;15.38;72.84;101350.91;1603188;87;21220;-74
2022/10/04 12:05:48;;;;;;;3.62;1.30;;;;;;;15.35;72.51;101341.86;1591250;87;21679;-74
2022/10/04 12:09:04;;;;;;;3.45;1.40;;;;;;;15.36;72.70;101340.97;1606253;87;21132;-74
2022/10/04 12:15:52;;;;;;;4.30;1.42;;;;;;;15.52;72.49;101339.70;1593272;88;21116;-74
2022/10/04 12:18:51;;;;;;;4.10;1.07;;;;;;;15.63;72.38;101339.44;1596807;87;21088;-74
2022/10/04 12:22:20;;;;;;;2.08;0.82;;;;;;;15.69;72.07;101341.89;1593193;87;21104;-74
2022/10/04 12:25:25;;;;;;;2.20;0.82;;;;;;;15.67;72.00;101342.37;1595878;87;21099;-74
2022/10/04 12:28:55;;;;;;;4.90;1.42;;;;;;;15.58;71.88;101333.96;1667530;84;21068;-75
2022/10/04 12:31:52;;;;;;;2.30;1.07;;;;;;;15.48;71.75;101338.06;1674929;83;21143;-76
2022/10/04 12:34:51;;;;;;;4.85;1.60;;;;;;;15.44;71.63;101332.97;1680679;83;21505;-75
2022/10/04 12:38:26;;;;;;;4.90;1.40;;;;;;;15.41;71.46;101336.95;1719982;81;20962;-75
2022/10/04 12:41:54;;;;;;;5.30;1.95;;;;;;;15.41;71.51;101339.11;1713669;82;21062;-75
2022/10/04 12:45:18;;;;;;;2.55;1.00;;;;;;;15.54;71.31;101331.84;1711596;81;20981;-75
2022/10/04 12:48:24;;;;;;;3.22;1.30;;;;;;;15.62;71.22;101338.17;1721114;81;21030;-76
2022/10/04 12:51:26;;;;;;;;;;;;;;;15.65;71.06;101340.70;1602428;81;10000451;-75
2022/10/04 12:54:32;;;;;;;2.00;0.95;;;;;;;15.63;70.66;101340.74;1720379;81;20208;-75
2022/10/04 12:57:42;;;;;;;3.05;1.27;;;;;;;15.58;70.77;101333.52;1713876;83;21089;-75
2022/10/04 13:00:35;;;;;;;5.28;1.40;;;;;;;15.57;70.66;101334.86;1710503;81;21369;-74
2022/10/04 13:03:51;;;;;;;3.17;1.20;;;;;;;15.58;70.69;101337.42;1721449;81;20923;-75
2022/10/04 13:07:10;;;;;;;3.72;1.20;;;;;;;15.65;70.69;101343.31;1721100;82;27188;-75
2022/10/04 13:10:35;;;;;;;5.42;1.62;;;;;;;15.71;70.46;101345.77;1702133;82;21069;-75
2022/10/04 13:13:40;;;;;;;7.42;1.62;;;;;;;15.68;70.31;101350.61;1719983;83;21014;-75
2022/10/04 13:16:47;;;;;;;3.45;1.55;;;;;;;15.65;70.28;101344.61;1720238;81;21552;-75
2022/10/04 13:19:49;;;;;;;3.27;1.65;;;;;;;15.64;70.21;101345.51;1718650;82;21025;-75
2022/10/04 13:23:00;;;;;;;5.55;1.90;;;;;;;15.64;70.11;101343.76;1718971;81;21077;-75
2022/10/04 13:26:14;;;;;;;2.90;1.27;;;;;;;15.63;69.90;101339.88;1723456;83;21486;-75
2022/10/04 13:29:13;;;;;;;3.02;1.35;;;;;;;15.59;69.78;101348.70;1718451;82;21046;-75
2022/10/04 13:32:13;;;;;;;2.40;1.10;;;;;;;15.51;69.68;101353.62;1716829;81;21015;-75
2022/10/04 13:35:11;;;;;;;2.80;1.10;;;;;;;15.46;69.66;101358.55;1719028;82;21013;-75
2022/10/04 13:38:38;;;;;;;3.80;1.15;;;;;;;15.41;69.55;101357.35;1699753;82;21086;-75
2022/10/04 13:41:28;;;;;;;4.67;1.30;;;;;;;15.36;69.42;101354.00;1663973;84;21085;-75
2022/10/04 13:44:33;;;;;;;9.90;2.17;;;;;;;15.34;69.33;101356.23;1706049;82;21091;-75
2022/10/04 13:47:53;;;;;;;3.30;1.25;;;;;;;15.32;69.17;101361.92;1702235;82;21177;-75
2022/10/04 13:50:59;;;;;;;4.92;2.62;;;;;;;15.31;69.16;101356.30;1701894;83;21106;-75
2022/10/04 13:57:07;;;;;;;6.00;2.30;;;;;;;15.28;68.90;101349.41;1704424;83;21440;-75
2022/10/04 14:00:04;;;;;;;3.27;1.95;;;;;;;15.24;68.86;101349.93;1703870;83;21046;-75
2022/10/04 14:03:37;;;;;;;4.22;1.55;;;;;;;15.23;68.79;101353.88;1698344;82;21532;-74
2022/10/04 14:06:42;;;;;;;6.17;1.90;;;;;;;15.22;68.70;101350.86;1703344;83;21526;-74
2022/10/04 14:09:49;;;;;;;2.62;1.70;;;;;;;15.17;68.36;101348.36;1703198;83;21086;-74
2022/10/04 14:13:04;;;;;;;6.58;1.55;;;;;;;15.13;68.50;101347.16;1705380;82;21023;-74
2022/10/04 14:16:20;;;;;;;5.22;1.77;;;;;;;15.09;68.41;101348.98;1703184;83;21038;-75
2022/10/04 14:19:43;;;;;;;2.62;1.37;;;;;;;15.06;68.24;101347.78;1705499;83;21436;-75
2022/10/04 14:22:45;;;;;;;3.67;1.70;;;;;;;15.03;68.31;101346.55;1700395;83;21080;-75
2022/10/04 14:25:54;;;;;;;8.13;1.82;;;;;;;15.01;68.27;101346.17;1700715;83;21129;-75